createdAt,value
2022-11-01T00:00:51.980Z,54.64
2022-11-01T00:03:15.620Z,54.80
2022-11-01T00:05:40.917Z,54.87
2022-11-01T00:08:05.877Z,55.07
2022-11-01T00:10:30.078Z,55.07
2022-11-01T00:11:40.550Z,55.02
2022-11-01T00:14:05.096Z,55.26
2022-11-01T00:16:31.462Z,55.12
2022-11-01T00:19:16.203Z,55.07
2022-11-01T00:21:40.779Z,55.34
2022-11-01T00:24:06.702Z,55.31
2022-11-01T00:26:30.563Z,55.25
2022-11-01T00:28:55.719Z,55.23
2022-11-01T00:31:22.753Z,55.60
2022-11-01T00:33:48.183Z,55.45
2022-11-01T00:36:14.564Z,55.38
2022-11-01T00:38:38.704Z,55.64
2022-11-01T00:41:22.775Z,55.72
2022-11-01T00:43:47.644Z,55.50
2022-11-01T00:44:58.242Z,55.57
2022-11-01T00:47:22.732Z,55.68
2022-11-01T00:48:32.174Z,55.44
2022-11-01T00:50:57.288Z,55.72
2022-11-01T00:53:22.486Z,55.67
2022-11-01T00:55:47.412Z,55.80
2022-11-01T00:58:13.500Z,55.79
2022-11-01T01:00:38.870Z,56.08
2022-11-01T01:03:04.442Z,56.22
2022-11-01T01:05:29.788Z,56.15
2022-11-01T01:07:55.266Z,55.88
2022-11-01T01:09:05.581Z,55.92
2022-11-01T01:11:30.640Z,55.97
2022-11-01T01:12:39.544Z,56.12
2022-11-01T01:15:05.639Z,56.23
2022-11-01T01:17:33.735Z,56.37
2022-11-01T01:19:59.018Z,56.61
2022-11-01T01:22:25.027Z,56.66
2022-11-01T01:24:48.833Z,56.46
2022-11-01T01:25:58.725Z,56.60
2022-11-01T01:27:09.664Z,56.54
2022-11-01T01:28:18.898Z,56.54
2022-11-01T01:30:45.134Z,56.49
2022-11-01T01:31:54.319Z,56.53
2022-11-01T01:33:03.674Z,56.66
2022-11-01T01:35:28.511Z,56.68
2022-11-01T01:37:54.562Z,56.87
2022-11-01T01:40:18.742Z,56.96
2022-11-01T01:41:46.432Z,57.08
2022-11-01T01:42:55.716Z,57.07
2022-11-01T01:46:17.689Z,57.40
2022-11-01T01:48:54.053Z,57.29
2022-11-01T01:51:29.802Z,57.49
2022-11-01T01:53:59.309Z,57.67
2022-11-01T01:55:11.397Z,57.88
2022-11-01T01:57:55.212Z,57.94
2022-11-01T02:00:27.430Z,58.01
2022-11-01T02:02:56.189Z,58.05
2022-11-01T02:05:35.195Z,58.07
2022-11-01T02:08:01.315Z,57.67
2022-11-01T02:10:30.432Z,57.78
2022-11-01T02:12:58.195Z,58.02
2022-11-01T02:15:26.578Z,58.25
2022-11-01T02:19:57.386Z,58.57
2022-11-01T02:22:58.020Z,58.59
2022-11-01T02:24:31.135Z,58.58
2022-11-01T02:27:21.434Z,58.67
2022-11-01T02:30:22.346Z,58.89
2022-11-01T02:34:59.767Z,58.82
2022-11-01T02:39:25.290Z,58.79
2022-11-01T02:42:25.578Z,58.87
2022-11-01T02:45:03.816Z,59.12
2022-11-01T02:46:33.321Z,59.14
2022-11-01T02:49:00.262Z,59.22
2022-11-01T02:51:30.060Z,59.55
2022-11-01T02:53:55.702Z,59.59
2022-11-01T02:56:30.803Z,59.64
2022-11-01T02:57:42.603Z,59.65
2022-11-01T03:00:22.431Z,59.43
2022-11-01T03:01:40.761Z,59.60
2022-11-01T03:04:10.449Z,59.25
2022-11-01T03:06:57.240Z,59.60
2022-11-01T03:09:28.243Z,59.64
2022-11-01T03:12:31.398Z,59.67
2022-11-01T03:15:11.627Z,59.67
2022-11-01T03:19:52.474Z,59.88
2022-11-01T03:22:38.904Z,59.69
2022-11-01T03:23:51.740Z,59.62
2022-11-01T03:26:50.790Z,60.06
2022-11-01T03:29:21.252Z,59.99
2022-11-01T03:30:34.107Z,60.19
2022-11-01T03:31:46.542Z,60.46
2022-11-01T03:32:57.991Z,60.07
2022-11-01T03:35:30.349Z,59.72
2022-11-01T03:38:11.596Z,59.85
2022-11-01T03:40:44.718Z,59.85
2022-11-01T03:41:58.062Z,60.02
2022-11-01T03:43:10.844Z,60.03
2022-11-01T03:44:20.672Z,60.04
2022-11-01T03:46:49.988Z,60.19
2022-11-01T03:49:19.563Z,60.13
2022-11-01T03:51:46.862Z,60.26
2022-11-01T03:54:11.421Z,60.38
2022-11-01T03:55:21.298Z,60.43
2022-11-01T03:57:49.338Z,60.63
2022-11-01T03:58:57.917Z,60.37
2022-11-01T04:01:24.849Z,60.68
2022-11-01T04:03:49.024Z,60.74
2022-11-01T04:06:13.975Z,60.53
2022-11-01T04:07:22.710Z,60.49
2022-11-01T04:08:32.149Z,60.56
2022-11-01T04:09:41.902Z,60.69
2022-11-01T04:10:52.367Z,60.64
2022-11-01T04:12:01.664Z,60.78
2022-11-01T04:13:10.245Z,60.76
2022-11-01T04:14:37.410Z,60.69
2022-11-01T04:17:39.029Z,60.55
2022-11-01T04:20:32.949Z,60.86
2022-11-01T04:21:42.953Z,60.95
2022-11-01T04:24:08.303Z,61.04
2022-11-01T04:26:32.000Z,61.20
2022-11-01T04:27:41.733Z,61.28
2022-11-01T04:28:56.531Z,61.31
2022-11-01T04:31:32.343Z,61.20
2022-11-01T04:34:01.948Z,61.36
2022-11-01T04:35:11.693Z,61.54
2022-11-01T04:37:37.510Z,61.27
2022-11-01T04:38:52.153Z,61.21
2022-11-01T04:40:01.773Z,61.20
2022-11-01T04:42:25.853Z,61.72
2022-11-01T04:44:49.357Z,61.60
2022-11-01T04:47:14.583Z,61.42
2022-11-01T04:49:39.991Z,61.11
2022-11-01T04:52:05.525Z,60.76
2022-11-01T04:53:15.885Z,60.47
2022-11-01T04:54:25.540Z,60.12
2022-11-01T04:55:35.900Z,60.44
2022-11-01T04:57:59.970Z,60.69
2022-11-01T04:59:09.576Z,60.54
2022-11-01T05:00:19.445Z,60.63
2022-11-01T05:02:44.308Z,60.71
2022-11-01T05:05:12.013Z,59.08
2022-11-01T05:06:21.804Z,59.30
2022-11-01T05:07:31.433Z,59.14
2022-11-01T05:09:56.005Z,58.24
2022-11-01T05:11:06.348Z,58.09
2022-11-01T05:13:31.212Z,55.88
2022-11-01T05:16:17.917Z,54.86
2022-11-01T05:17:06.680Z,54.78
2022-11-01T05:18:15.900Z,52.98
2022-11-01T05:20:39.634Z,52.76
2022-11-01T05:21:49.897Z,51.54
2022-11-01T05:23:04.146Z,51.18
2022-11-01T05:25:32.686Z,51.36
2022-11-01T05:29:33.041Z,50.76
2022-11-01T05:30:35.534Z,50.61
2022-11-01T05:33:00.760Z,49.62
2022-11-01T05:34:09.399Z,47.55
2022-11-01T05:36:33.070Z,46.20
2022-11-01T05:38:59.303Z,45.84
2022-11-01T05:41:26.346Z,44.94
2022-11-01T05:43:54.672Z,45.00
2022-11-01T05:46:20.621Z,45.08
2022-11-01T05:48:46.130Z,45.96
2022-11-01T05:49:55.352Z,46.81
2022-11-01T05:52:21.030Z,47.32
2022-11-01T05:53:29.726Z,47.77
2022-11-01T05:54:39.511Z,47.73
2022-11-01T05:55:48.714Z,47.88
2022-11-01T05:58:12.674Z,48.47
2022-11-01T06:00:37.509Z,48.77
2022-11-01T06:01:46.799Z,49.01
2022-11-01T06:04:14.654Z,49.72
2022-11-01T06:06:38.413Z,50.05
2022-11-01T06:07:48.095Z,50.50
2022-11-01T06:10:13.467Z,51.19
2022-11-01T06:11:22.062Z,51.27
2022-11-01T06:12:33.474Z,51.57
2022-11-01T06:13:42.324Z,51.82
2022-11-01T06:14:52.182Z,51.89
2022-11-01T06:16:03.946Z,52.24
2022-11-01T06:17:13.507Z,52.10
2022-11-01T06:18:22.096Z,52.40
2022-11-01T06:20:59.090Z,52.55
2022-11-01T06:22:08.657Z,52.71
2022-11-01T06:23:18.086Z,53.00
2022-11-01T06:25:42.639Z,53.13
2022-11-01T06:28:07.571Z,53.35
2022-11-01T06:29:18.125Z,53.67
2022-11-01T06:31:42.729Z,53.53
2022-11-01T06:34:07.461Z,53.39
2022-11-01T06:36:32.796Z,53.58
2022-11-01T06:37:41.816Z,53.68
2022-11-01T06:38:52.451Z,53.38
2022-11-01T11:21:09.340Z,39.14
2022-11-01T11:22:21.954Z,39.05
2022-11-01T11:23:44.356Z,38.95
2022-11-01T11:26:16.361Z,35.93
2022-11-01T11:28:49.519Z,35.78
2022-11-01T11:31:33.220Z,35.53
2022-11-01T11:32:49.993Z,35.97
2022-11-01T11:35:21.221Z,35.78
2022-11-01T11:39:27.783Z,35.72
2022-11-01T11:42:20.169Z,35.51
2022-11-01T11:44:55.448Z,35.40
2022-11-01T11:46:20.104Z,35.51
2022-11-01T11:49:03.572Z,35.24
2022-11-01T11:51:42.074Z,35.16
2022-11-01T11:54:32.055Z,35.18
2022-11-01T11:57:20.643Z,35.25
2022-11-01T12:00:04.502Z,35.26
2022-11-01T12:01:25.995Z,35.09
2022-11-01T12:02:42.034Z,34.96
2022-11-01T12:03:58.523Z,34.95
2022-11-01T12:06:47.631Z,34.51
2022-11-01T12:07:58.580Z,34.01
2022-11-01T12:10:59.217Z,32.61
2022-11-01T12:13:41.839Z,33.30
2022-11-01T12:19:04.199Z,33.83
2022-11-01T12:21:43.645Z,33.59
2022-11-01T12:23:30.997Z,33.58
2022-11-01T12:26:05.670Z,33.47
2022-11-01T12:28:43.075Z,33.65
2022-11-01T12:29:56.581Z,33.72
2022-11-01T12:32:37.764Z,33.87
2022-11-01T12:35:34.878Z,33.63
2022-11-01T12:38:36.016Z,33.47
2022-11-01T12:41:44.950Z,33.46
2022-11-01T12:43:19.701Z,33.40
2022-11-01T12:46:11.697Z,33.02
2022-11-01T12:48:52.053Z,32.63
2022-11-01T12:50:17.292Z,33.02
2022-11-01T12:53:12.144Z,32.91
2022-11-01T12:55:42.488Z,33.21
2022-11-01T12:56:55.850Z,33.33
2022-11-01T12:59:31.254Z,33.14
2022-11-01T13:02:12.366Z,33.78
2022-11-01T13:03:44.914Z,33.89
2022-11-01T13:08:14.925Z,33.45
2022-11-01T13:09:30.391Z,33.65
2022-11-01T13:12:24.586Z,33.61
2022-11-01T13:13:40.685Z,33.78
2022-11-01T13:16:32.298Z,33.81
2022-11-01T13:20:59.971Z,33.78
2022-11-01T13:22:10.226Z,33.43
2022-11-01T13:23:23.642Z,32.98
2022-11-01T13:24:46.382Z,33.00
2022-11-01T13:27:57.749Z,32.99
2022-11-01T13:30:36.460Z,32.78
2022-11-01T13:32:11.817Z,32.84
2022-11-01T13:34:55.966Z,32.73
2022-11-01T13:37:57.479Z,32.61
2022-11-01T13:40:56.612Z,32.96
2022-11-01T13:43:43.840Z,33.27
2022-11-01T13:46:27.676Z,33.39
2022-11-01T13:49:11.771Z,33.41
2022-11-01T13:50:31.595Z,33.59
2022-11-01T13:53:22.414Z,33.45
2022-11-01T13:56:08.964Z,33.09
2022-11-01T13:58:36.211Z,33.37
2022-11-01T14:01:36.373Z,33.60
2022-11-01T14:04:19.755Z,33.63
2022-11-01T14:05:38.933Z,33.53
2022-11-01T14:07:13.278Z,33.50
2022-11-01T14:09:49.931Z,32.69
2022-11-01T14:10:59.986Z,32.71
2022-11-01T14:12:13.328Z,32.93
2022-11-01T14:13:39.210Z,32.87
2022-11-01T14:16:19.332Z,32.55
2022-11-01T14:17:36.499Z,32.67
2022-11-01T14:20:29.141Z,32.54
2022-11-01T14:24:21.852Z,32.68
2022-11-01T14:26:51.165Z,33.25
2022-11-01T14:28:21.799Z,33.02
2022-11-01T14:30:49.989Z,32.55
2022-11-01T14:34:41.910Z,33.63
2022-11-01T14:37:14.208Z,33.84
2022-11-01T14:40:03.639Z,33.69
2022-11-01T19:52:12.683Z,44.90
2022-11-01T19:54:54.048Z,44.45
2022-11-01T19:57:37.482Z,44.19
2022-11-01T20:00:21.935Z,44.01
2022-11-01T20:03:06.101Z,43.72
2022-11-01T20:05:44.913Z,43.70
2022-11-01T20:07:02.803Z,43.71
2022-11-01T20:09:41.369Z,43.65
2022-11-01T20:12:05.879Z,43.75
2022-11-01T20:14:29.605Z,43.69
2022-11-01T20:16:53.797Z,43.72
2022-11-01T20:19:20.044Z,43.69
2022-11-01T20:21:45.151Z,43.73
2022-11-01T20:24:09.757Z,43.71
2022-11-01T20:26:36.900Z,43.52
2022-11-01T20:29:01.806Z,43.61
2022-11-01T20:30:12.120Z,43.67
2022-11-01T20:31:21.991Z,43.76
2022-11-01T20:33:47.545Z,44.00
2022-11-01T20:36:13.397Z,43.98
2022-11-01T20:38:37.477Z,44.12
2022-11-01T20:41:01.250Z,44.41
2022-11-01T20:42:11.433Z,44.51
2022-11-01T20:44:36.912Z,44.61
2022-11-01T20:47:02.023Z,44.68
2022-11-01T20:49:26.909Z,44.68
2022-11-01T20:50:36.161Z,44.75
2022-11-01T20:53:01.492Z,44.74
2022-11-01T20:54:17.638Z,44.57
2022-11-01T20:55:24.185Z,44.44
2022-11-01T20:57:48.127Z,44.50
2022-11-01T21:00:18.360Z,44.46
2022-11-01T21:02:42.768Z,44.56
2022-11-01T21:03:53.897Z,44.72
2022-11-01T21:06:36.177Z,44.84
2022-11-01T21:07:47.958Z,44.86
2022-11-01T21:11:44.527Z,44.55
2022-11-01T21:12:53.639Z,44.46
2022-11-01T21:16:55.611Z,44.23
2022-11-01T21:19:25.918Z,43.82
2022-11-01T21:22:18.992Z,43.79
2022-11-01T21:24:51.630Z,43.76
2022-11-01T21:30:04.548Z,43.95
2022-11-01T21:32:38.678Z,44.18
2022-11-01T21:33:57.444Z,44.27
2022-11-01T21:36:50.046Z,44.57
2022-11-01T21:38:00.574Z,44.46
2022-11-01T21:39:11.623Z,44.52
2022-11-01T21:42:04.744Z,44.79
2022-11-01T21:44:45.501Z,45.21
2022-11-01T21:47:16.474Z,45.10
2022-11-01T21:48:31.178Z,45.02
2022-11-01T21:49:41.730Z,45.03
2022-11-01T21:52:07.800Z,45.11
2022-11-01T21:53:17.625Z,45.10
2022-11-01T21:55:45.210Z,44.96
2022-11-01T21:58:11.028Z,44.99
2022-11-01T21:59:20.454Z,44.95
2022-11-01T22:01:46.190Z,45.05
2022-11-01T22:02:56.045Z,44.96
2022-11-01T22:05:20.225Z,44.94
2022-11-01T22:06:29.549Z,44.74
2022-11-01T22:08:55.719Z,45.34
2022-11-01T22:11:23.579Z,45.80
2022-11-01T22:13:47.719Z,45.50
2022-11-01T22:16:11.410Z,44.89
2022-11-01T22:18:35.728Z,44.72
2022-11-01T22:21:01.588Z,44.73
2022-11-01T22:22:10.619Z,44.86
2022-11-01T22:24:35.590Z,44.92
2022-11-01T22:25:44.178Z,44.95
2022-11-01T22:26:53.428Z,45.03
2022-11-01T22:29:18.401Z,45.28
2022-11-01T22:31:42.340Z,45.35
2022-11-01T22:34:07.096Z,45.37
2022-11-01T22:35:16.928Z,45.43
2022-11-01T22:36:29.257Z,45.60
2022-11-01T22:39:01.495Z,45.92
2022-11-01T22:41:34.087Z,46.18
2022-11-01T22:42:44.111Z,46.15
2022-11-01T22:43:56.677Z,46.22
2022-11-01T22:46:52.327Z,46.43
2022-11-01T22:49:27.016Z,46.44
2022-11-01T22:50:36.185Z,46.30
2022-11-01T22:54:39.524Z,46.13
2022-11-01T22:57:25.074Z,46.04
2022-11-01T22:59:57.694Z,46.14
2022-11-01T23:02:38.882Z,46.16
2022-11-01T23:05:16.344Z,46.28
2022-11-01T23:06:34.385Z,46.28
2022-11-01T23:07:49.817Z,46.22
2022-11-01T23:10:34.929Z,46.45
2022-11-01T23:13:43.595Z,46.56
2022-11-01T23:14:52.670Z,46.59
2022-11-01T23:16:17.594Z,46.71
2022-11-01T23:18:45.874Z,47.07
2022-11-01T23:20:00.256Z,47.08
2022-11-01T23:22:28.185Z,47.10
2022-11-01T23:24:58.957Z,47.16
2022-11-01T23:26:09.322Z,47.00
2022-11-01T23:27:24.090Z,46.99
2022-11-01T23:28:37.298Z,47.04
2022-11-01T23:31:05.978Z,47.02
2022-11-01T23:32:16.164Z,47.04
2022-11-01T23:34:46.892Z,47.23
2022-11-01T23:37:33.663Z,47.33
2022-11-01T23:40:01.147Z,47.34
2022-11-01T23:42:35.918Z,47.46
2022-11-01T23:45:00.235Z,47.34
2022-11-01T23:46:15.129Z,47.28
2022-11-01T23:48:52.605Z,47.38
2022-11-01T23:50:05.456Z,47.32
2022-11-01T23:51:21.065Z,47.44
2022-11-01T23:53:55.786Z,47.43
2022-11-01T23:56:25.218Z,47.58
2022-11-01T23:59:01.564Z,47.74
